Tampa, Florida
Traffic Map
Current Weather Conditions
Tampa, Florida
Broken Clouds
Broken Clouds
80°
Feels Like: 84°
Wind Chill: 80° Ceiling: 21000
Heat Index: 84° Visibility: 10mi
Dew Point: 72° Wind: 0mph
Humidity: 76% Direction: ° ()
Pressure: 29.97in Gusts: 0mph
Raw Report DataKTPA 050053Z 00000KT 10SM FEW032 BKN210 27/22 A2997 RMK AO2 TSE06 SLP149 T02670222
Traffic Incident Summary
Active as of:
Severity:
Category:
InformationThere was an issue retrieving the traffic information for this location. Please try a different location or try again shortly.
Advertisements
Track Severe Weather on mobile